createdAt,value
2022-11-11T00:01:17.798Z,3.00
2022-11-11T00:04:03.009Z,3.10
2022-11-11T00:06:48.623Z,2.90
2022-11-11T00:09:33.839Z,2.90
2022-11-11T00:12:19.491Z,3.00
2022-11-11T00:15:06.951Z,3.10
2022-11-11T00:18:10.834Z,3.20
2022-11-11T00:21:17.868Z,3.40
2022-11-11T00:24:38.142Z,3.70
2022-11-11T00:27:24.026Z,3.70
2022-11-11T00:30:09.996Z,3.60
2022-11-11T00:32:56.455Z,3.40
2022-11-11T00:35:53.958Z,3.30
2022-11-11T00:38:45.519Z,3.10
2022-11-11T00:41:30.568Z,2.80
2022-11-11T00:44:16.357Z,2.50
2022-11-11T00:47:20.402Z,2.30
2022-11-11T00:50:30.458Z,2.10
2022-11-11T00:53:26.739Z,1.90
2022-11-11T00:56:12.523Z,1.90
2022-11-11T00:58:58.169Z,1.90
2022-11-11T01:01:43.768Z,1.90
2022-11-11T01:04:29.603Z,1.80
2022-11-11T01:07:15.158Z,1.90
2022-11-11T01:10:00.652Z,1.90
2022-11-11T01:12:46.107Z,1.80
2022-11-11T01:15:33.794Z,1.70
2022-11-11T01:18:25.459Z,1.60
2022-11-11T01:21:19.631Z,1.40
2022-11-11T01:24:05.518Z,1.40
2022-11-11T01:26:51.012Z,1.40
2022-11-11T01:29:36.612Z,1.30
2022-11-11T01:32:21.942Z,1.30
2022-11-11T01:35:08.038Z,1.20
2022-11-11T01:37:53.490Z,1.10
2022-11-11T01:40:47.816Z,1.40
2022-11-11T01:43:33.543Z,1.30
2022-11-11T01:46:29.281Z,1.10
2022-11-11T01:49:18.911Z,1.10
2022-11-11T01:52:12.079Z,1.30
2022-11-11T01:55:03.463Z,1.50
2022-11-11T01:57:59.517Z,1.40
2022-11-11T02:00:45.238Z,1.30
2022-11-11T02:03:35.476Z,1.20
2022-11-11T02:06:21.035Z,1.10
2022-11-11T02:09:07.990Z,1.10
2022-11-11T02:12:13.920Z,1.00
2022-11-11T02:15:01.154Z,1.00
2022-11-11T02:17:50.459Z,1.00
2022-11-11T02:20:39.292Z,1.10
2022-11-11T02:23:46.926Z,1.20
2022-11-11T02:26:34.891Z,1.00
2022-11-11T02:29:22.159Z,1.30
2022-11-11T02:32:07.884Z,1.40
2022-11-11T02:34:53.520Z,1.60
2022-11-11T02:37:38.756Z,1.80
2022-11-11T02:40:38.223Z,1.80
2022-11-11T02:43:24.034Z,1.80
2022-11-11T02:46:09.930Z,1.80
2022-11-11T02:48:55.253Z,1.70
2022-11-11T02:51:41.041Z,1.70
2022-11-11T02:54:26.625Z,1.70
2022-11-11T02:57:12.426Z,1.70
2022-11-11T03:00:00.199Z,1.70
2022-11-11T03:02:45.578Z,1.80
2022-11-11T03:05:31.642Z,2.00
2022-11-11T03:08:17.422Z,2.10
2022-11-11T03:11:02.782Z,2.00
2022-11-11T03:13:48.320Z,1.90
2022-11-11T03:16:53.004Z,1.80
2022-11-11T03:19:38.249Z,1.70
2022-11-11T03:25:38.545Z,1.60
2022-11-11T03:28:26.597Z,1.60
2022-11-11T03:31:11.993Z,1.60
2022-11-11T03:34:17.695Z,1.60
2022-11-11T03:37:23.891Z,1.50
2022-11-11T03:40:09.781Z,1.30
2022-11-11T03:42:58.336Z,1.20
2022-11-11T03:45:48.931Z,1.10
2022-11-11T03:48:35.084Z,1.10
2022-11-11T03:51:20.677Z,1.10
2022-11-11T03:54:06.410Z,1.00
2022-11-11T03:56:52.255Z,0.90
2022-11-11T03:59:37.604Z,0.90
2022-11-11T04:02:41.783Z,1.10
2022-11-11T04:05:46.294Z,1.20
2022-11-11T04:08:50.366Z,1.30
2022-11-11T04:11:43.546Z,1.50
2022-11-11T04:14:47.688Z,1.70
2022-11-11T04:17:33.161Z,1.70
2022-11-11T04:20:37.877Z,1.60
2022-11-11T04:23:23.524Z,1.60
2022-11-11T04:26:09.790Z,1.60
2022-11-11T04:29:13.940Z,1.60
2022-11-11T04:32:24.191Z,1.60
2022-11-11T04:35:12.232Z,1.60
2022-11-11T04:38:17.858Z,1.70
2022-11-11T04:41:03.659Z,1.70
2022-11-11T04:44:07.825Z,1.70
2022-11-11T04:46:53.330Z,1.60
2022-11-11T04:49:38.807Z,1.60
2022-11-11T04:52:27.086Z,1.40
2022-11-11T04:55:31.190Z,1.20
2022-11-11T04:58:18.612Z,1.00
2022-11-11T05:01:04.073Z,0.80
2022-11-11T05:03:49.291Z,0.80
2022-11-11T05:06:58.131Z,0.90
2022-11-11T05:09:44.893Z,1.10
2022-11-11T05:12:30.525Z,1.20
2022-11-11T05:15:34.524Z,1.00
2022-11-11T05:18:38.660Z,1.00
2022-11-11T05:21:29.659Z,1.00
2022-11-11T05:24:33.440Z,0.90
2022-11-11T05:27:20.993Z,0.80
2022-11-11T05:30:09.011Z,0.60
2022-11-11T05:32:57.236Z,0.60
2022-11-11T05:35:42.824Z,0.90
2022-11-11T05:38:30.115Z,1.30
2022-11-11T05:41:15.324Z,1.40
2022-11-11T05:44:00.906Z,1.60
2022-11-11T05:46:46.315Z,1.60
2022-11-11T05:49:32.091Z,1.70
2022-11-11T05:52:17.808Z,1.80
2022-11-11T05:55:02.991Z,1.90
2022-11-11T05:57:48.474Z,2.00
2022-11-11T06:00:33.814Z,2.10
2022-11-11T06:03:19.525Z,2.20
2022-11-11T06:06:05.322Z,2.20
2022-11-11T06:08:51.028Z,2.30
2022-11-11T06:11:36.785Z,2.50
2022-11-11T06:14:22.277Z,2.50
2022-11-11T06:17:07.744Z,2.60
2022-11-11T06:19:53.253Z,2.70
2022-11-11T06:22:56.811Z,2.60
2022-11-11T06:26:00.567Z,2.50
2022-11-11T06:28:51.887Z,2.30
2022-11-11T06:31:37.298Z,2.10
2022-11-11T06:34:22.692Z,2.10
2022-11-11T06:37:08.410Z,2.30
2022-11-11T06:39:53.877Z,2.80
2022-11-11T06:42:39.651Z,3.00
2022-11-11T06:45:26.427Z,3.10
2022-11-11T06:48:12.222Z,3.10
2022-11-11T06:51:05.939Z,3.00
2022-11-11T06:53:51.720Z,2.80
2022-11-11T06:56:37.048Z,2.60
2022-11-11T06:59:22.526Z,2.60
2022-11-11T07:02:13.731Z,2.70
2022-11-11T07:05:00.416Z,2.90
2022-11-11T07:07:45.880Z,3.00
2022-11-11T07:10:32.583Z,3.10
2022-11-11T07:13:17.967Z,3.20
2022-11-11T07:16:03.186Z,3.20
2022-11-11T07:18:48.825Z,3.40
2022-11-11T07:21:34.137Z,3.50
2022-11-11T07:24:19.737Z,3.60
2022-11-11T07:27:05.316Z,3.70
2022-11-11T07:29:50.877Z,3.90
2022-11-11T07:32:36.996Z,4.00
2022-11-11T07:35:22.931Z,4.30
2022-11-11T07:38:08.269Z,4.60
2022-11-11T07:40:54.056Z,4.90
2022-11-11T07:43:39.822Z,5.10
2022-11-11T07:46:26.173Z,5.30
2022-11-11T07:49:11.816Z,5.50
2022-11-11T07:51:57.489Z,5.80
2022-11-11T07:54:43.061Z,5.90
2022-11-11T07:57:28.512Z,6.10
2022-11-11T08:00:14.556Z,6.50
2022-11-11T08:03:02.984Z,6.80
2022-11-11T08:05:50.941Z,6.90
2022-11-11T08:08:36.593Z,7.00
2022-11-11T08:11:42.352Z,7.30
2022-11-11T08:14:27.726Z,7.30
2022-11-11T08:17:13.256Z,7.10
2022-11-11T08:19:58.710Z,6.90
2022-11-11T08:23:01.264Z,6.70
2022-11-11T08:25:49.198Z,6.70
2022-11-11T08:28:35.976Z,6.70
2022-11-11T08:31:21.112Z,6.80
2022-11-11T08:34:07.066Z,6.80
2022-11-11T08:36:52.759Z,6.90
2022-11-11T08:39:38.078Z,7.10
2022-11-11T08:42:24.226Z,7.00
2022-11-11T08:45:10.124Z,7.00
2022-11-11T08:47:55.648Z,7.20
2022-11-11T08:50:41.619Z,7.40
2022-11-11T08:53:28.163Z,7.60
2022-11-11T08:56:13.701Z,7.70
2022-11-11T08:58:59.186Z,7.60
2022-11-11T09:01:44.698Z,8.20
2022-11-11T09:04:44.444Z,8.50
2022-11-11T09:07:30.995Z,8.90
2022-11-11T09:10:17.011Z,9.40
2022-11-11T09:13:02.850Z,9.50
2022-11-11T09:15:48.460Z,9.80
2022-11-11T09:18:34.014Z,10.30
2022-11-11T09:21:19.646Z,10.60
2022-11-11T09:24:05.561Z,10.90
2022-11-11T09:26:51.335Z,11.40
2022-11-11T09:29:37.151Z,11.40
2022-11-11T09:32:22.689Z,11.60
2022-11-11T09:35:08.714Z,11.70
2022-11-11T09:37:59.620Z,11.70
2022-11-11T09:41:19.425Z,11.50
2022-11-11T09:44:05.289Z,11.20
2022-11-11T09:46:59.745Z,10.90
2022-11-11T09:49:45.066Z,10.90
2022-11-11T09:52:41.716Z,10.70
2022-11-11T09:55:35.966Z,10.80
2022-11-11T09:58:27.369Z,11.00
2022-11-11T10:01:18.013Z,11.20
2022-11-11T10:04:21.719Z,11.30
2022-11-11T10:07:25.724Z,10.90
2022-11-11T10:10:21.462Z,10.80
2022-11-11T10:13:15.322Z,10.90
2022-11-11T10:16:14.772Z,11.10
2022-11-11T10:19:28.812Z,11.30
2022-11-11T10:22:27.954Z,11.20
2022-11-11T10:25:13.192Z,11.00
2022-11-11T10:28:01.669Z,11.10
2022-11-11T10:30:49.524Z,11.00
2022-11-11T10:33:52.978Z,11.30
2022-11-11T10:36:54.506Z,11.00
2022-11-11T10:39:45.469Z,11.30
2022-11-11T10:42:30.800Z,11.50
2022-11-11T10:45:28.703Z,11.60
2022-11-11T10:48:21.107Z,11.50
2022-11-11T10:51:07.457Z,11.60
2022-11-11T10:54:10.188Z,11.60
2022-11-11T10:57:04.541Z,11.90
2022-11-11T10:59:57.088Z,11.80
2022-11-11T11:03:02.022Z,11.90
2022-11-11T11:06:10.918Z,11.90
2022-11-11T11:09:02.833Z,11.90
2022-11-11T11:12:04.896Z,11.70
2022-11-11T11:14:56.788Z,12.00
2022-11-11T11:18:01.335Z,11.80
2022-11-11T11:21:05.138Z,11.50
2022-11-11T11:23:50.887Z,11.20
2022-11-11T11:26:48.648Z,11.20
2022-11-11T11:29:44.275Z,11.10
2022-11-11T11:32:33.096Z,11.20
2022-11-11T11:35:40.494Z,11.10
2022-11-11T11:38:50.665Z,11.10
2022-11-11T11:41:40.532Z,11.20
2022-11-11T11:44:34.418Z,11.20
2022-11-11T11:47:25.661Z,11.10
2022-11-11T11:50:52.541Z,10.90
2022-11-11T11:54:03.015Z,10.80
2022-11-11T11:56:52.398Z,10.50
2022-11-11T12:00:03.394Z,10.60
2022-11-11T12:03:06.938Z,10.50
2022-11-11T12:06:12.658Z,10.80
2022-11-11T12:09:36.547Z,11.00
2022-11-11T12:12:21.827Z,11.10
2022-11-11T12:15:14.666Z,11.20
2022-11-11T12:18:19.027Z,11.30
2022-11-11T12:21:09.053Z,11.80
2022-11-11T12:24:01.597Z,11.70
2022-11-11T12:27:06.581Z,11.80
2022-11-11T12:29:55.345Z,11.60
2022-11-11T12:33:12.170Z,11.50
2022-11-11T12:36:11.115Z,11.10
2022-11-11T12:39:29.269Z,11.00
2022-11-11T12:42:40.280Z,11.20
2022-11-11T12:46:02.735Z,11.40
2022-11-11T12:49:31.071Z,11.30
2022-11-11T12:52:35.025Z,11.50
2022-11-11T12:55:30.789Z,11.20
2022-11-11T12:58:26.042Z,11.20
2022-11-11T13:01:25.220Z,10.90
2022-11-11T13:04:19.453Z,10.80
2022-11-11T13:07:23.588Z,10.90
2022-11-11T13:10:23.428Z,11.10
2022-11-11T13:13:30.962Z,11.20
2022-11-11T13:16:19.477Z,11.30
2022-11-11T13:19:22.086Z,11.20
2022-11-11T13:22:13.325Z,11.30
2022-11-11T13:25:04.164Z,11.30
2022-11-11T13:27:56.690Z,11.60
2022-11-11T13:31:06.929Z,11.50
2022-11-11T13:33:58.051Z,11.60
2022-11-11T13:36:53.511Z,11.90
2022-11-11T13:39:45.859Z,12.10
2022-11-11T13:42:48.285Z,12.20
2022-11-11T13:45:40.921Z,12.10
2022-11-11T13:48:29.877Z,12.00
2022-11-11T13:51:44.349Z,11.70
2022-11-11T13:54:40.762Z,11.70
2022-11-11T13:57:29.838Z,11.60
2022-11-11T14:00:18.709Z,11.30
2022-11-11T14:03:20.461Z,11.40
2022-11-11T14:06:14.943Z,11.20
2022-11-11T14:09:01.489Z,11.00
2022-11-11T14:11:46.878Z,10.90
2022-11-11T14:14:32.238Z,10.80
2022-11-11T14:17:18.653Z,10.70
2022-11-11T14:20:37.000Z,10.70
2022-11-11T14:23:34.582Z,10.50
2022-11-11T14:26:24.392Z,10.50
2022-11-11T14:29:18.864Z,10.40
2022-11-11T14:32:19.709Z,10.40
2022-11-11T14:35:32.137Z,10.40
2022-11-11T14:38:45.290Z,10.60
2022-11-11T14:41:51.665Z,10.50
2022-11-11T14:44:39.268Z,10.40
2022-11-11T14:47:31.439Z,10.40
2022-11-11T14:50:31.911Z,10.30
2022-11-11T14:53:20.633Z,10.10
2022-11-11T14:56:16.517Z,9.80
2022-11-11T14:59:08.180Z,9.70
2022-11-11T15:01:55.428Z,9.60
2022-11-11T15:04:41.321Z,9.50
2022-11-11T15:08:28.137Z,9.30
2022-11-11T15:11:19.110Z,9.10
2022-11-11T15:14:29.074Z,8.90
2022-11-11T15:17:39.299Z,8.70
2022-11-11T15:20:28.240Z,8.50
2022-11-11T15:23:41.222Z,8.40
2022-11-11T15:26:40.179Z,8.20
2022-11-11T15:29:44.506Z,8.10
2022-11-11T15:32:58.313Z,8.00
2022-11-11T15:35:50.170Z,7.80
2022-11-11T15:38:35.953Z,7.70
2022-11-11T15:41:35.293Z,7.60
2022-11-11T15:44:27.828Z,7.40
2022-11-11T15:47:16.148Z,7.30
2022-11-11T15:50:02.000Z,7.20
2022-11-11T15:52:47.587Z,7.10
2022-11-11T15:55:37.552Z,7.00
2022-11-11T15:58:33.389Z,6.90
2022-11-11T16:01:21.662Z,6.80
2022-11-11T16:04:27.738Z,6.70
2022-11-11T16:07:26.867Z,6.60
2022-11-11T16:10:21.758Z,6.60
2022-11-11T16:13:21.747Z,6.60
2022-11-11T16:16:16.128Z,6.50
2022-11-11T16:19:22.837Z,6.50
2022-11-11T16:22:15.266Z,6.60
2022-11-11T16:25:03.702Z,6.60
2022-11-11T16:27:49.441Z,6.60
2022-11-11T16:30:37.715Z,6.60
2022-11-11T16:33:26.154Z,6.60
2022-11-11T16:36:12.229Z,6.50
2022-11-11T16:39:19.219Z,6.50
2022-11-11T16:42:16.302Z,6.40
2022-11-11T16:45:05.135Z,6.40
2022-11-11T16:47:50.874Z,6.40
2022-11-11T16:50:57.581Z,6.40
2022-11-11T16:53:55.022Z,6.40
2022-11-11T16:56:47.984Z,6.40
2022-11-11T16:59:45.134Z,6.40
2022-11-11T17:02:31.058Z,6.40
2022-11-11T17:05:16.399Z,6.40
2022-11-11T17:08:40.025Z,6.40
2022-11-11T17:11:40.579Z,6.40
2022-11-11T17:14:27.918Z,6.40
2022-11-11T17:17:13.244Z,6.30
2022-11-11T17:20:02.174Z,6.30
2022-11-11T17:22:56.053Z,6.30
2022-11-11T17:25:41.176Z,6.30
2022-11-11T17:28:28.207Z,6.30
2022-11-11T17:31:15.007Z,6.30
2022-11-11T17:34:08.760Z,6.30
2022-11-11T17:36:54.589Z,6.30
2022-11-11T17:39:43.191Z,6.30
2022-11-11T17:42:30.239Z,6.30
2022-11-11T17:45:15.518Z,6.30
2022-11-11T17:48:01.028Z,6.30
2022-11-11T17:50:46.807Z,6.30
2022-11-11T17:53:37.036Z,6.30
2022-11-11T17:56:22.487Z,6.30
2022-11-11T17:59:08.128Z,6.30
2022-11-11T18:01:53.732Z,6.30
2022-11-11T18:04:40.097Z,6.30
2022-11-11T18:07:25.884Z,6.30
2022-11-11T18:10:12.580Z,6.40
2022-11-11T18:12:58.756Z,6.40
2022-11-11T18:15:44.029Z,6.40
2022-11-11T18:18:31.520Z,6.40
2022-11-11T18:21:17.151Z,6.40
2022-11-11T18:24:06.812Z,6.40
2022-11-11T18:26:52.392Z,6.40
2022-11-11T18:29:38.024Z,6.40
2022-11-11T18:32:23.597Z,6.40
2022-11-11T18:35:09.071Z,6.30
2022-11-11T18:37:54.822Z,6.30
2022-11-11T18:40:40.297Z,6.30
2022-11-11T18:43:26.062Z,6.30
2022-11-11T18:46:14.812Z,6.30
2022-11-11T18:49:01.897Z,6.30
2022-11-11T18:51:47.770Z,6.30
2022-11-11T18:54:33.071Z,6.30
2022-11-11T18:57:18.809Z,6.30
2022-11-11T19:00:04.737Z,6.30
2022-11-11T19:02:49.886Z,6.30
2022-11-11T19:05:35.658Z,6.30
2022-11-11T19:08:20.829Z,6.30
2022-11-11T19:11:07.872Z,6.30
2022-11-11T19:13:53.899Z,6.30
2022-11-11T19:16:40.304Z,6.30
2022-11-11T19:19:25.898Z,6.30
2022-11-11T19:22:11.523Z,6.30
2022-11-11T19:24:57.232Z,6.30
2022-11-11T19:27:42.964Z,6.30
2022-11-11T19:30:28.431Z,6.30
2022-11-11T19:33:13.938Z,6.30
2022-11-11T19:36:02.302Z,6.20
2022-11-11T19:38:48.720Z,6.20
2022-11-11T19:41:34.153Z,6.10
2022-11-11T19:44:19.812Z,6.10
2022-11-11T19:47:05.758Z,6.10
2022-11-11T19:49:51.365Z,6.00
2022-11-11T19:52:37.029Z,6.00
2022-11-11T19:55:22.578Z,6.00
2022-11-11T19:58:08.223Z,6.00
2022-11-11T20:00:54.078Z,6.00
2022-11-11T20:03:40.077Z,6.00
2022-11-11T20:06:27.278Z,6.00
2022-11-11T20:09:13.147Z,5.90
2022-11-11T20:11:58.584Z,5.80
2022-11-11T20:14:44.265Z,5.70
2022-11-11T20:17:29.819Z,5.70
2022-11-11T20:20:15.710Z,5.70
2022-11-11T20:23:07.327Z,5.70
2022-11-11T20:25:56.810Z,5.70
2022-11-11T20:28:43.231Z,5.70
2022-11-11T20:31:28.876Z,5.70
2022-11-11T20:34:14.261Z,5.60
2022-11-11T20:37:00.379Z,5.60
2022-11-11T20:39:46.094Z,5.60
2022-11-11T20:42:31.536Z,5.60
2022-11-11T20:45:17.343Z,5.60
2022-11-11T20:48:07.506Z,5.60
2022-11-11T20:50:52.698Z,5.60
2022-11-11T20:53:38.519Z,5.60
2022-11-11T20:56:24.884Z,5.50
2022-11-11T20:59:10.292Z,5.40
2022-11-11T21:01:56.044Z,5.50
2022-11-11T21:04:41.503Z,5.50
2022-11-11T21:07:27.110Z,5.40
2022-11-11T21:10:12.657Z,5.40
2022-11-11T21:12:58.134Z,5.40
2022-11-11T21:15:43.721Z,5.40
2022-11-11T21:18:29.466Z,5.40
2022-11-11T21:21:24.027Z,5.40
2022-11-11T21:24:10.030Z,5.40
2022-11-11T21:26:55.712Z,5.40
2022-11-11T21:29:41.018Z,5.30
2022-11-11T21:32:26.612Z,5.30
2022-11-11T21:35:12.235Z,5.30
2022-11-11T21:37:57.362Z,5.30
2022-11-11T21:40:42.996Z,5.30
2022-11-11T21:43:28.106Z,5.30
2022-11-11T21:46:16.922Z,5.30
2022-11-11T21:49:03.265Z,5.20
2022-11-11T21:51:50.665Z,5.20
2022-11-11T21:54:36.368Z,5.20
2022-11-11T21:57:22.103Z,5.20
2022-11-11T22:00:08.289Z,5.20
2022-11-11T22:02:53.498Z,5.20
2022-11-11T22:05:38.854Z,5.20
2022-11-11T22:08:24.749Z,5.20
2022-11-11T22:11:14.153Z,5.20
2022-11-11T22:14:01.363Z,5.20
2022-11-11T22:16:46.957Z,5.20
2022-11-11T22:19:32.479Z,5.20
2022-11-11T22:22:17.930Z,5.20
2022-11-11T22:25:03.690Z,5.10
2022-11-11T22:27:48.945Z,5.10
2022-11-11T22:30:34.265Z,5.10
2022-11-11T22:33:19.862Z,5.10
2022-11-11T22:36:08.252Z,5.10
2022-11-11T22:38:53.716Z,5.10
2022-11-11T22:41:40.513Z,5.10
2022-11-11T22:44:26.308Z,5.20
2022-11-11T22:47:11.819Z,5.20
2022-11-11T22:49:57.232Z,5.20
2022-11-11T22:52:46.787Z,5.20
2022-11-11T22:55:32.376Z,5.20
2022-11-11T22:58:18.069Z,5.10
2022-11-11T23:01:06.052Z,5.10
2022-11-11T23:03:53.421Z,5.00
2022-11-11T23:06:41.078Z,5.00
2022-11-11T23:09:26.734Z,4.90
2022-11-11T23:12:12.195Z,4.90
2022-11-11T23:14:57.838Z,4.90
2022-11-11T23:17:43.547Z,4.90
2022-11-11T23:20:28.963Z,4.80
2022-11-11T23:23:14.411Z,4.80
2022-11-11T23:26:09.653Z,4.80
2022-11-11T23:28:56.034Z,4.80
2022-11-11T23:31:41.661Z,4.80
2022-11-11T23:34:27.075Z,4.80
2022-11-11T23:37:12.707Z,4.80
2022-11-11T23:39:58.209Z,4.80
2022-11-11T23:42:43.716Z,4.80
2022-11-11T23:45:29.261Z,4.80
2022-11-11T23:48:14.785Z,4.80
2022-11-11T23:51:01.400Z,4.70
2022-11-11T23:53:47.042Z,4.70
2022-11-11T23:56:34.582Z,4.70
2022-11-11T23:59:20.283Z,4.80
